sensor_id;sensor_type;location;lat;lon;timestamp;pressure;altitude;pressure_sealevel;temperature;humidity
55291;BME280;41155;39.768;2.712;2023-01-25T00:00:39;101953.13;;;7.81;100.00
55291;BME280;41155;39.768;2.712;2023-01-25T00:03:05;101940.13;;;7.91;100.00
55291;BME280;41155;39.768;2.712;2023-01-25T00:05:30;101940.78;;;8.00;100.00
55291;BME280;41155;39.768;2.712;2023-01-25T00:07:56;101937.50;;;8.11;100.00
55291;BME280;41155;39.768;2.712;2023-01-25T00:10:21;101937.69;;;8.03;100.00
55291;BME280;41155;39.768;2.712;2023-01-25T00:12:47;101931.22;;;7.84;100.00
55291;BME280;41155;39.768;2.712;2023-01-25T00:15:13;101914.50;;;8.02;100.00
55291;BME280;41155;39.768;2.712;2023-01-25T00:17:38;101905.13;;;7.71;100.00
55291;BME280;41155;39.768;2.712;2023-01-25T00:20:04;101916.75;;;7.85;100.00
55291;BME280;41155;39.768;2.712;2023-01-25T00:22:30;101904.75;;;7.94;100.00
55291;BME280;41155;39.768;2.712;2023-01-25T00:24:55;101916.19;;;8.23;100.00
55291;BME280;41155;39.768;2.712;2023-01-25T00:27:21;101914.50;;;8.15;100.00
55291;BME280;41155;39.768;2.712;2023-01-25T00:29:47;101885.97;;;8.07;100.00
55291;BME280;41155;39.768;2.712;2023-01-25T00:34:48;101915.13;;;8.24;100.00
55291;BME280;41155;39.768;2.712;2023-01-25T00:37:24;101917.84;;;8.30;100.00
55291;BME280;41155;39.768;2.712;2023-01-25T00:39:52;101911.22;;;8.26;100.00
55291;BME280;41155;39.768;2.712;2023-01-25T00:42:18;101915.97;;;8.31;100.00
55291;BME280;41155;39.768;2.712;2023-01-25T00:44:44;101907.69;;;8.32;100.00
55291;BME280;41155;39.768;2.712;2023-01-25T00:47:10;101907.09;;;8.30;100.00
55291;BME280;41155;39.768;2.712;2023-01-25T00:49:38;101909.13;;;8.35;100.00
55291;BME280;41155;39.768;2.712;2023-01-25T00:52:04;101921.53;;;8.36;100.00
55291;BME280;41155;39.768;2.712;2023-01-25T00:54:30;101919.31;;;8.40;100.00
55291;BME280;41155;39.768;2.712;2023-01-25T00:56:55;101909.78;;;8.44;100.00
55291;BME280;41155;39.768;2.712;2023-01-25T00:59:22;101917.03;;;8.50;100.00
55291;BME280;41155;39.768;2.712;2023-01-25T01:01:48;101915.78;;;8.66;100.00
55291;BME280;41155;39.768;2.712;2023-01-25T01:04:14;101910.19;;;8.67;100.00
55291;BME280;41155;39.768;2.712;2023-01-25T01:06:40;101910.19;;;8.67;100.00
55291;BME280;41155;39.768;2.712;2023-01-25T01:09:11;101909.97;;;8.75;100.00
55291;BME280;41155;39.768;2.712;2023-01-25T01:11:36;101922.41;;;8.83;100.00
55291;BME280;41155;39.768;2.712;2023-01-25T01:14:02;101872.50;;;8.47;100.00
55291;BME280;41155;39.768;2.712;2023-01-25T01:16:27;101915.56;;;8.80;100.00
55291;BME280;41155;39.768;2.712;2023-01-25T01:18:53;101925.06;;;8.76;100.00
55291;BME280;41155;39.768;2.712;2023-01-25T01:21:18;101922.63;;;8.68;100.00
55291;BME280;41155;39.768;2.712;2023-01-25T01:23:44;101919.31;;;8.66;100.00
55291;BME280;41155;39.768;2.712;2023-01-25T01:26:12;101906.88;;;8.65;100.00
55291;BME280;41155;39.768;2.712;2023-01-25T01:28:38;101913.31;;;8.71;100.00
55291;BME280;41155;39.768;2.712;2023-01-25T01:31:07;101914.13;;;8.71;100.00
55291;BME280;41155;39.768;2.712;2023-01-25T01:33:33;101927.56;;;8.91;100.00
55291;BME280;41155;39.768;2.712;2023-01-25T01:36:08;101923.00;;;8.78;100.00
55291;BME280;41155;39.768;2.712;2023-01-25T01:38:34;101904.78;;;8.80;100.00
55291;BME280;41155;39.768;2.712;2023-01-25T01:40:59;101900.03;;;8.69;100.00
55291;BME280;41155;39.768;2.712;2023-01-25T01:43:25;101897.56;;;8.54;100.00
55291;BME280;41155;39.768;2.712;2023-01-25T01:45:55;101896.09;;;8.58;100.00
55291;BME280;41155;39.768;2.712;2023-01-25T01:48:44;101898.41;;;8.55;100.00
55291;BME280;41155;39.768;2.712;2023-01-25T01:51:34;101897.78;;;8.53;100.00
55291;BME280;41155;39.768;2.712;2023-01-25T01:54:10;101875.44;;;8.46;100.00
55291;BME280;41155;39.768;2.712;2023-01-25T01:56:45;101917.22;;;8.42;100.00
55291;BME280;41155;39.768;2.712;2023-01-25T01:59:13;101920.13;;;8.47;100.00
55291;BME280;41155;39.768;2.712;2023-01-25T02:01:39;101906.25;;;8.50;100.00
55291;BME280;41155;39.768;2.712;2023-01-25T02:04:06;101914.31;;;8.36;100.00
55291;BME280;41155;39.768;2.712;2023-01-25T02:09:28;101907.50;;;8.60;100.00
55291;BME280;41155;39.768;2.712;2023-01-25T02:11:56;101907.31;;;8.49;100.00
55291;BME280;41155;39.768;2.712;2023-01-25T02:14:22;101899.00;;;8.37;100.00
55291;BME280;41155;39.768;2.712;2023-01-25T02:16:48;101919.31;;;8.59;100.00
55291;BME280;41155;39.768;2.712;2023-01-25T02:21:52;101898.19;;;8.56;100.00
55291;BME280;41155;39.768;2.712;2023-01-25T02:24:22;101895.94;;;8.40;100.00
55291;BME280;41155;39.768;2.712;2023-01-25T02:26:52;101911.22;;;8.53;100.00
55291;BME280;41155;39.768;2.712;2023-01-25T02:29:18;101913.91;;;8.53;100.00
55291;BME280;41155;39.768;2.712;2023-01-25T02:31:47;101893.63;;;8.44;100.00
55291;BME280;41155;39.768;2.712;2023-01-25T02:34:17;101903.59;;;8.56;100.00
55291;BME280;41155;39.768;2.712;2023-01-25T02:36:42;101878.13;;;8.39;100.00
55291;BME280;41155;39.768;2.712;2023-01-25T02:39:12;101899.03;;;8.57;100.00
55291;BME280;41155;39.768;2.712;2023-01-25T02:41:42;101906.69;;;8.60;100.00
55291;BME280;41155;39.768;2.712;2023-01-25T02:44:19;101901.94;;;8.62;100.00
55291;BME280;41155;39.768;2.712;2023-01-25T02:46:45;101889.50;;;8.54;100.00
55291;BME280;41155;39.768;2.712;2023-01-25T02:49:12;101890.72;;;8.65;100.00
55291;BME280;41155;39.768;2.712;2023-01-25T02:51:42;101883.25;;;8.67;100.00
55291;BME280;41155;39.768;2.712;2023-01-25T02:54:09;101873.72;;;8.65;100.00
55291;BME280;41155;39.768;2.712;2023-01-25T02:56:35;101848.09;;;8.49;100.00
55291;BME280;41155;39.768;2.712;2023-01-25T02:59:01;101863.81;;;8.65;100.00
55291;BME280;41155;39.768;2.712;2023-01-25T03:01:32;101867.91;;;8.68;100.00
55291;BME280;41155;39.768;2.712;2023-01-25T03:03:57;101853.41;;;8.75;100.00
55291;BME280;41155;39.768;2.712;2023-01-25T03:06:23;101869.38;;;8.70;100.00
55291;BME280;41155;39.768;2.712;2023-01-25T03:08:48;101842.28;;;8.65;100.00
55291;BME280;41155;39.768;2.712;2023-01-25T03:11:14;101849.72;;;8.63;100.00
55291;BME280;41155;39.768;2.712;2023-01-25T03:13:40;101833.16;;;8.66;100.00
55291;BME280;41155;39.768;2.712;2023-01-25T03:16:10;101839.97;;;8.69;100.00
55291;BME280;41155;39.768;2.712;2023-01-25T03:18:39;101836.88;;;8.65;100.00
55291;BME280;41155;39.768;2.712;2023-01-25T03:21:14;101841.44;;;8.71;100.00
55291;BME280;41155;39.768;2.712;2023-01-25T03:23:40;101839.53;;;8.78;100.00
55291;BME280;41155;39.768;2.712;2023-01-25T03:26:11;101842.22;;;8.78;100.00
55291;BME280;41155;39.768;2.712;2023-01-25T03:28:39;101852.13;;;8.85;100.00
55291;BME280;41155;39.768;2.712;2023-01-25T03:31:05;101855.66;;;8.85;100.00
55291;BME280;41155;39.768;2.712;2023-01-25T03:33:31;101851.50;;;8.89;100.00
55291;BME280;41155;39.768;2.712;2023-01-25T03:35:57;101853.03;;;8.65;100.00
55291;BME280;41155;39.768;2.712;2023-01-25T03:38:23;101852.00;;;8.59;100.00
55291;BME280;41155;39.768;2.712;2023-01-25T03:40:50;101856.78;;;8.51;100.00
55291;BME280;41155;39.768;2.712;2023-01-25T03:43:15;101853.06;;;8.25;100.00
55291;BME280;41155;39.768;2.712;2023-01-25T03:45:41;101864.59;;;7.92;100.00
55291;BME280;41155;39.768;2.712;2023-01-25T03:48:06;101852.66;;;8.02;100.00
55291;BME280;41155;39.768;2.712;2023-01-25T03:50:32;101828.44;;;8.08;100.00
55291;BME280;41155;39.768;2.712;2023-01-25T03:52:57;101839.78;;;8.24;100.00
55291;BME280;41155;39.768;2.712;2023-01-25T03:55:27;101842.88;;;8.27;100.00
55291;BME280;41155;39.768;2.712;2023-01-25T03:57:53;101843.13;;;7.99;100.00
55291;BME280;41155;39.768;2.712;2023-01-25T04:00:19;101849.34;;;8.13;100.00
55291;BME280;41155;39.768;2.712;2023-01-25T04:02:45;101847.03;;;8.23;100.00
55291;BME280;41155;39.768;2.712;2023-01-25T04:05:11;101854.91;;;8.05;100.00
55291;BME280;41155;39.768;2.712;2023-01-25T04:07:36;101855.94;;;7.97;100.00
55291;BME280;41155;39.768;2.712;2023-01-25T04:10:03;101858.22;;;8.07;100.00
55291;BME280;41155;39.768;2.712;2023-01-25T04:12:28;101852.84;;;8.13;100.00
55291;BME280;41155;39.768;2.712;2023-01-25T04:14:54;101853.88;;;8.19;100.00
55291;BME280;41155;39.768;2.712;2023-01-25T04:17:19;101835.88;;;8.06;100.00
55291;BME280;41155;39.768;2.712;2023-01-25T04:19:45;101843.13;;;8.19;100.00
55291;BME280;41155;39.768;2.712;2023-01-25T04:22:10;101834.84;;;8.14;100.00
55291;BME280;41155;39.768;2.712;2023-01-25T04:24:37;101817.66;;;8.08;100.00
55291;BME280;41155;39.768;2.712;2023-01-25T04:27:02;101828.03;;;8.05;100.00
55291;BME280;41155;39.768;2.712;2023-01-25T04:29:28;101827.38;;;8.03;100.00
55291;BME280;41155;39.768;2.712;2023-01-25T04:31:54;101834.84;;;8.01;100.00
55291;BME280;41155;39.768;2.712;2023-01-25T04:34:19;101849.31;;;8.00;100.00
55291;BME280;41155;39.768;2.712;2023-01-25T04:36:45;101849.13;;;8.08;100.00
55291;BME280;41155;39.768;2.712;2023-01-25T04:39:10;101833.78;;;7.95;100.00
55291;BME280;41155;39.768;2.712;2023-01-25T04:41:35;101837.72;;;7.92;100.00
55291;BME280;41155;39.768;2.712;2023-01-25T04:44:01;101848.09;;;7.96;100.00
55291;BME280;41155;39.768;2.712;2023-01-25T04:46:26;101852.22;;;7.98;100.00
55291;BME280;41155;39.768;2.712;2023-01-25T04:48:52;101853.47;;;8.09;100.00
55291;BME280;41155;39.768;2.712;2023-01-25T04:51:17;101849.94;;;8.08;100.00
55291;BME280;41155;39.768;2.712;2023-01-25T04:53:43;101845.59;;;7.94;100.00
55291;BME280;41155;39.768;2.712;2023-01-25T04:56:08;101839.81;;;7.90;100.00
55291;BME280;41155;39.768;2.712;2023-01-25T04:58:34;101829.25;;;7.89;100.00
55291;BME280;41155;39.768;2.712;2023-01-25T05:01:03;101826.78;;;7.87;100.00
55291;BME280;41155;39.768;2.712;2023-01-25T05:03:31;101835.81;;;7.46;100.00
55291;BME280;41155;39.768;2.712;2023-01-25T05:05:57;101840.34;;;7.46;100.00
55291;BME280;41155;39.768;2.712;2023-01-25T05:08:23;101853.38;;;7.49;100.00
55291;BME280;41155;39.768;2.712;2023-01-25T05:10:50;101858.78;;;7.62;100.00
55291;BME280;41155;39.768;2.712;2023-01-25T05:13:15;101853.22;;;7.70;100.00
55291;BME280;41155;39.768;2.712;2023-01-25T05:15:41;101865.25;;;7.95;100.00
55291;BME280;41155;39.768;2.712;2023-01-25T05:18:06;101856.34;;;7.94;100.00
55291;BME280;41155;39.768;2.712;2023-01-25T05:20:32;101838.56;;;7.93;100.00
55291;BME280;41155;39.768;2.712;2023-01-25T05:22:57;101843.09;;;7.79;100.00
55291;BME280;41155;39.768;2.712;2023-01-25T05:25:22;101840.59;;;7.71;100.00
55291;BME280;41155;39.768;2.712;2023-01-25T05:28:07;101837.28;;;7.56;100.00
55291;BME280;41155;39.768;2.712;2023-01-25T05:30:32;101841.00;;;7.61;100.00
55291;BME280;41155;39.768;2.712;2023-01-25T05:32:58;101832.31;;;7.66;100.00
55291;BME280;41155;39.768;2.712;2023-01-25T05:35:23;101838.94;;;7.63;100.00
55291;BME280;41155;39.768;2.712;2023-01-25T05:37:49;101854.41;;;7.41;100.00
55291;BME280;41155;39.768;2.712;2023-01-25T05:40:14;101858.56;;;7.51;100.00
55291;BME280;41155;39.768;2.712;2023-01-25T05:42:40;101861.06;;;7.59;100.00
55291;BME280;41155;39.768;2.712;2023-01-25T05:45:07;101870.59;;;7.61;100.00
55291;BME280;41155;39.768;2.712;2023-01-25T05:47:33;101876.16;;;7.60;100.00
55291;BME280;41155;39.768;2.712;2023-01-25T05:49:58;101879.06;;;7.65;100.00
55291;BME280;41155;39.768;2.712;2023-01-25T05:52:24;101874.75;;;7.84;100.00
55291;BME280;41155;39.768;2.712;2023-01-25T05:54:49;101881.97;;;7.83;100.00
55291;BME280;41155;39.768;2.712;2023-01-25T05:57:15;101878.28;;;7.84;100.00
55291;BME280;41155;39.768;2.712;2023-01-25T05:59:40;101889.00;;;7.78;100.00
55291;BME280;41155;39.768;2.712;2023-01-25T06:02:06;101883.84;;;7.69;100.00
55291;BME280;41155;39.768;2.712;2023-01-25T06:04:31;101871.22;;;7.77;100.00
55291;BME280;41155;39.768;2.712;2023-01-25T06:06:57;101867.47;;;7.64;100.00
55291;BME280;41155;39.768;2.712;2023-01-25T06:09:22;101864.38;;;7.74;100.00
55291;BME280;41155;39.768;2.712;2023-01-25T06:11:48;101843.94;;;7.73;100.00
55291;BME280;41155;39.768;2.712;2023-01-25T06:14:14;101850.09;;;7.54;100.00
55291;BME280;41155;39.768;2.712;2023-01-25T06:16:40;101859.19;;;7.66;100.00
55291;BME280;41155;39.768;2.712;2023-01-25T06:19:06;101860.59;;;7.42;100.00
55291;BME280;41155;39.768;2.712;2023-01-25T06:21:33;101860.19;;;7.52;100.00
55291;BME280;41155;39.768;2.712;2023-01-25T06:24:01;101846.19;;;7.76;100.00
55291;BME280;41155;39.768;2.712;2023-01-25T06:26:27;101842.28;;;7.85;100.00
55291;BME280;41155;39.768;2.712;2023-01-25T06:28:53;101842.88;;;7.67;100.00
55291;BME280;41155;39.768;2.712;2023-01-25T06:31:18;101854.66;;;7.66;100.00
55291;BME280;41155;39.768;2.712;2023-01-25T06:33:51;101831.09;;;7.55;100.00
55291;BME280;41155;39.768;2.712;2023-01-25T06:36:18;101849.72;;;7.70;100.00
55291;BME280;41155;39.768;2.712;2023-01-25T06:38:49;101841.19;;;7.66;100.00
55291;BME280;41155;39.768;2.712;2023-01-25T06:41:15;101852.38;;;7.63;100.00
55291;BME280;41155;39.768;2.712;2023-01-25T06:43:40;101842.69;;;7.76;100.00
55291;BME280;41155;39.768;2.712;2023-01-25T06:46:08;101866.69;;;7.90;100.00
55291;BME280;41155;39.768;2.712;2023-01-25T06:48:36;101852.84;;;7.93;100.00
55291;BME280;41155;39.768;2.712;2023-01-25T06:51:04;101859.69;;;7.96;100.00
55291;BME280;41155;39.768;2.712;2023-01-25T06:53:31;101859.25;;;7.99;100.00
55291;BME280;41155;39.768;2.712;2023-01-25T06:56:02;101861.53;;;8.15;100.00
55291;BME280;41155;39.768;2.712;2023-01-25T06:58:28;101853.03;;;8.12;100.00
55291;BME280;41155;39.768;2.712;2023-01-25T07:00:59;101862.56;;;8.21;100.00
55291;BME280;41155;39.768;2.712;2023-01-25T07:03:26;101866.50;;;8.25;100.00
55291;BME280;41155;39.768;2.712;2023-01-25T07:05:56;101865.88;;;8.36;100.00
55291;BME280;41155;39.768;2.712;2023-01-25T07:08:22;101869.81;;;8.34;100.00
55291;BME280;41155;39.768;2.712;2023-01-25T07:10:55;101860.31;;;8.45;100.00
55291;BME280;41155;39.768;2.712;2023-01-25T07:13:21;101861.34;;;8.44;100.00
55291;BME280;41155;39.768;2.712;2023-01-25T07:15:58;101874.38;;;8.47;100.00
55291;BME280;41155;39.768;2.712;2023-01-25T07:18:25;101890.09;;;8.50;100.00
55291;BME280;41155;39.768;2.712;2023-01-25T07:20:50;101863.00;;;8.51;100.00
55291;BME280;41155;39.768;2.712;2023-01-25T07:23:16;101875.81;;;8.56;100.00
55291;BME280;41155;39.768;2.712;2023-01-25T07:25:46;101869.19;;;8.52;100.00
55291;BME280;41155;39.768;2.712;2023-01-25T07:28:12;101873.75;;;8.58;100.00
55291;BME280;41155;39.768;2.712;2023-01-25T07:30:39;101875.81;;;8.56;100.00
55291;BME280;41155;39.768;2.712;2023-01-25T07:33:05;101872.09;;;8.64;100.00
55291;BME280;41155;39.768;2.712;2023-01-25T07:35:31;101880.78;;;8.66;100.00
55291;BME280;41155;39.768;2.712;2023-01-25T07:37:57;101854.88;;;8.71;100.00
55291;BME280;41155;39.768;2.712;2023-01-25T07:40:22;101889.88;;;8.78;100.00
55291;BME280;41155;39.768;2.712;2023-01-25T07:42:52;101891.13;;;8.69;100.00
55291;BME280;41155;39.768;2.712;2023-01-25T07:45:18;101893.19;;;8.73;100.00
55291;BME280;41155;39.768;2.712;2023-01-25T07:47:47;101865.44;;;8.79;100.00
55291;BME280;41155;39.768;2.712;2023-01-25T07:50:12;101891.09;;;8.82;100.00
55291;BME280;41155;39.768;2.712;2023-01-25T07:52:38;101896.09;;;8.78;100.00
55291;BME280;41155;39.768;2.712;2023-01-25T07:55:04;101901.88;;;8.82;100.00
55291;BME280;41155;39.768;2.712;2023-01-25T07:57:30;101900.84;;;8.76;100.00
55291;BME280;41155;39.768;2.712;2023-01-25T07:59:55;101898.56;;;8.87;100.00
55291;BME280;41155;39.768;2.712;2023-01-25T08:02:21;101892.13;;;8.81;100.00
55291;BME280;41155;39.768;2.712;2023-01-25T08:04:46;101872.41;;;8.94;100.00
55291;BME280;41155;39.768;2.712;2023-01-25T08:07:13;101880.13;;;8.83;100.00
55291;BME280;41155;39.768;2.712;2023-01-25T08:09:40;101892.13;;;8.81;100.00
55291;BME280;41155;39.768;2.712;2023-01-25T08:12:05;101889.44;;;8.88;100.00
55291;BME280;41155;39.768;2.712;2023-01-25T08:14:31;101874.28;;;9.00;100.00
55291;BME280;41155;39.768;2.712;2023-01-25T08:17:00;101891.88;;;9.02;100.00
55291;BME280;41155;39.768;2.712;2023-01-25T08:19:25;101891.25;;;8.94;100.00
55291;BME280;41155;39.768;2.712;2023-01-25T08:21:51;101873.69;;;8.85;100.00
55291;BME280;41155;39.768;2.712;2023-01-25T08:24:17;101884.47;;;8.91;100.00
55291;BME280;41155;39.768;2.712;2023-01-25T08:26:42;101881.34;;;8.88;100.00
55291;BME280;41155;39.768;2.712;2023-01-25T08:29:09;101855.03;;;8.90;100.00
55291;BME280;41155;39.768;2.712;2023-01-25T08:31:35;101883.84;;;8.89;100.00
55291;BME280;41155;39.768;2.712;2023-01-25T08:34:03;101894.38;;;8.97;100.00
55291;BME280;41155;39.768;2.712;2023-01-25T08:36:29;101884.88;;;8.95;100.00
55291;BME280;41155;39.768;2.712;2023-01-25T08:38:57;101835.00;;;8.59;100.00
55291;BME280;41155;39.768;2.712;2023-01-25T08:41:23;101876.97;;;9.00;100.00
55291;BME280;41155;39.768;2.712;2023-01-25T08:43:51;101882.97;;;9.02;100.00
55291;BME280;41155;39.768;2.712;2023-01-25T08:46:18;101872.38;;;9.07;100.00
55291;BME280;41155;39.768;2.712;2023-01-25T08:48:43;101890.00;;;9.10;100.00
55291;BME280;41155;39.768;2.712;2023-01-25T08:51:15;101898.28;;;9.08;100.00
55291;BME280;41155;39.768;2.712;2023-01-25T08:53:41;101881.91;;;9.10;100.00
55291;BME280;41155;39.768;2.712;2023-01-25T08:56:09;101885.22;;;9.12;100.00
55291;BME280;41155;39.768;2.712;2023-01-25T08:58:37;101883.72;;;9.22;100.00
55291;BME280;41155;39.768;2.712;2023-01-25T09:01:05;101873.38;;;9.19;100.00
55291;BME280;41155;39.768;2.712;2023-01-25T09:03:33;101882.47;;;9.25;100.00
55291;BME280;41155;39.768;2.712;2023-01-25T09:05:59;101880.91;;;9.49;100.00
55291;BME280;41155;39.768;2.712;2023-01-25T09:08:24;101884.16;;;9.64;100.00
55291;BME280;41155;39.768;2.712;2023-01-25T09:10:50;101896.59;;;9.65;100.00
55291;BME280;41155;39.768;2.712;2023-01-25T09:13:15;101892.81;;;9.73;100.00
55291;BME280;41155;39.768;2.712;2023-01-25T09:15:40;101880.66;;;9.57;100.00
55291;BME280;41155;39.768;2.712;2023-01-25T09:18:09;101864.47;;;9.57;100.00
55291;BME280;41155;39.768;2.712;2023-01-25T09:20:37;101878.09;;;9.69;100.00
55291;BME280;41155;39.768;2.712;2023-01-25T09:23:03;101883.66;;;9.81;100.00
55291;BME280;41155;39.768;2.712;2023-01-25T09:25:29;101899.97;;;9.92;100.00
55291;BME280;41155;39.768;2.712;2023-01-25T09:27:54;101898.66;;;9.95;100.00
55291;BME280;41155;39.768;2.712;2023-01-25T09:30:19;101905.13;;;9.94;100.00
55291;BME280;41155;39.768;2.712;2023-01-25T09:32:48;101903.59;;;9.73;100.00
55291;BME280;41155;39.768;2.712;2023-01-25T09:35:14;101903.47;;;9.61;100.00
55291;BME280;41155;39.768;2.712;2023-01-25T09:37:40;101918.97;;;9.72;100.00
55291;BME280;41155;39.768;2.712;2023-01-25T09:40:17;101907.31;;;9.79;100.00
55291;BME280;41155;39.768;2.712;2023-01-25T09:42:58;101925.50;;;9.90;100.00
55291;BME280;41155;39.768;2.712;2023-01-25T09:45:31;101915.97;;;9.87;100.00
55291;BME280;41155;39.768;2.712;2023-01-25T09:53:49;101930.78;;;10.10;100.00
55291;BME280;41155;39.768;2.712;2023-01-25T09:56:34;101912.59;;;9.92;100.00
55291;BME280;41155;39.768;2.712;2023-01-25T09:59:12;101928.25;;;9.77;100.00
55291;BME280;41155;39.768;2.712;2023-01-25T10:04:20;101916.06;;;9.67;100.00
55291;BME280;41155;39.768;2.712;2023-01-25T10:07:03;101928.31;;;9.70;100.00
55291;BME280;41155;39.768;2.712;2023-01-25T10:09:43;101928.31;;;9.70;100.00
55291;BME280;41155;39.768;2.712;2023-01-25T10:12:22;101933.47;;;9.71;100.00
55291;BME280;41155;39.768;2.712;2023-01-25T10:14:49;101934.53;;;9.70;100.00
55291;BME280;41155;39.768;2.712;2023-01-25T10:17:37;101930.13;;;9.76;100.00
55291;BME280;41155;39.768;2.712;2023-01-25T10:20:30;101938.00;;;9.78;100.00
55291;BME280;41155;39.768;2.712;2023-01-25T10:26:00;101931.09;;;9.50;100.00
55291;BME280;41155;39.768;2.712;2023-01-25T10:31:07;101941.66;;;9.51;100.00
55291;BME280;41155;39.768;2.712;2023-01-25T10:33:38;101941.44;;;9.53;100.00
55291;BME280;41155;39.768;2.712;2023-01-25T10:36:05;101934.47;;;9.39;100.00
55291;BME280;41155;39.768;2.712;2023-01-25T10:38:39;101935.44;;;9.51;100.00
55291;BME280;41155;39.768;2.712;2023-01-25T10:41:20;101931.97;;;9.37;100.00
55291;BME280;41155;39.768;2.712;2023-01-25T10:43:48;101922.84;;;9.38;100.00
55291;BME280;41155;39.768;2.712;2023-01-25T10:46:33;101934.47;;;9.39;100.00
55291;BME280;41155;39.768;2.712;2023-01-25T10:49:08;101925.66;;;9.57;100.00
55291;BME280;41155;39.768;2.712;2023-01-25T10:51:41;101934.84;;;9.49;100.00
55291;BME280;41155;39.768;2.712;2023-01-25T10:54:13;101931.97;;;9.44;100.00
55291;BME280;41155;39.768;2.712;2023-01-25T10:56:40;101925.56;;;9.38;100.00
55291;BME280;41155;39.768;2.712;2023-01-25T10:59:24;101931.97;;;9.44;100.00
55291;BME280;41155;39.768;2.712;2023-01-25T11:01:51;101921.59;;;9.41;100.00
55291;BME280;41155;39.768;2.712;2023-01-25T11:04:34;101928.59;;;9.55;100.00
55291;BME280;41155;39.768;2.712;2023-01-25T11:07:01;101935.88;;;9.48;100.00
55291;BME280;41155;39.768;2.712;2023-01-25T11:11:53;101938.13;;;9.51;100.00
55291;BME280;41155;39.768;2.712;2023-01-25T11:14:22;101921.94;;;9.58;100.00
55291;BME280;41155;39.768;2.712;2023-01-25T11:16:48;101926.91;;;9.61;100.00
55291;BME280;41155;39.768;2.712;2023-01-25T11:19:26;101933.16;;;9.48;100.00
55291;BME280;41155;39.768;2.712;2023-01-25T11:21:54;101918.41;;;9.57;100.00
55291;BME280;41155;39.768;2.712;2023-01-25T11:24:25;101930.69;;;9.46;100.00
55291;BME280;41155;39.768;2.712;2023-01-25T11:27:16;101927.41;;;9.38;100.00
55291;BME280;41155;39.768;2.712;2023-01-25T11:29:42;101918.69;;;9.42;100.00
55291;BME280;41155;39.768;2.712;2023-01-25T11:32:18;101931.75;;;9.39;100.00
55291;BME280;41155;39.768;2.712;2023-01-25T11:34:47;101925.50;;;9.45;100.00
55291;BME280;41155;39.768;2.712;2023-01-25T11:42:27;101905.72;;;9.64;100.00
55291;BME280;41155;39.768;2.712;2023-01-25T11:48:08;101889.59;;;9.51;100.00
55291;BME280;41155;39.768;2.712;2023-01-25T11:50:38;101898.69;;;9.57;100.00
55291;BME280;41155;39.768;2.712;2023-01-25T12:01:09;101867.53;;;9.67;100.00
55291;BME280;41155;39.768;2.712;2023-01-25T12:06:38;101857.94;;;9.71;100.00
55291;BME280;41155;39.768;2.712;2023-01-25T12:09:33;101865.72;;;9.61;100.00
55291;BME280;41155;39.768;2.712;2023-01-25T12:12:23;101855.06;;;9.73;100.00
55291;BME280;41155;39.768;2.712;2023-01-25T12:20:37;101857.25;;;9.51;100.00
55291;BME280;41155;39.768;2.712;2023-01-25T12:28:46;101836.59;;;9.38;100.00
55291;BME280;41155;39.768;2.712;2023-01-25T12:31:22;101827.94;;;9.30;100.00
55291;BME280;41155;39.768;2.712;2023-01-25T12:34:02;101820.88;;;9.28;100.00
55291;BME280;41155;39.768;2.712;2023-01-25T12:36:34;101827.94;;;9.30;100.00
55291;BME280;41155;39.768;2.712;2023-01-25T12:41:50;101819.28;;;9.53;100.00
55291;BME280;41155;39.768;2.712;2023-01-25T12:44:41;101806.81;;;9.58;100.00
55291;BME280;41155;39.768;2.712;2023-01-25T12:47:17;101818.63;;;9.57;100.00
55291;BME280;41155;39.768;2.712;2023-01-25T12:49:49;101808.34;;;9.47;100.00
55291;BME280;41155;39.768;2.712;2023-01-25T12:52:34;101806.28;;;9.43;100.00
55291;BME280;41155;39.768;2.712;2023-01-25T12:55:05;101792.97;;;9.48;100.00
55291;BME280;41155;39.768;2.712;2023-01-25T13:05:57;101782.00;;;9.74;100.00
55291;BME280;41155;39.768;2.712;2023-01-25T13:08:37;101786.38;;;9.69;100.00
55291;BME280;41155;39.768;2.712;2023-01-25T13:11:23;101781.41;;;9.72;100.00
55291;BME280;41155;39.768;2.712;2023-01-25T13:13:50;101774.06;;;9.55;100.00
55291;BME280;41155;39.768;2.712;2023-01-25T13:18:55;101771.22;;;9.74;100.00
55291;BME280;41155;39.768;2.712;2023-01-25T13:24:15;101775.41;;;9.70;99.89
55291;BME280;41155;39.768;2.712;2023-01-25T13:32:51;101770.38;;;9.74;100.00
55291;BME280;41155;39.768;2.712;2023-01-25T13:34:58;101775.25;;;9.90;98.86
55291;BME280;41155;39.768;2.712;2023-01-25T13:37:27;101769.56;;;9.99;97.39
55291;BME280;41155;39.768;2.712;2023-01-25T13:42:30;101756.28;;;9.97;100.00
55291;BME280;41155;39.768;2.712;2023-01-25T13:45:15;101758.50;;;10.07;98.89
55291;BME280;41155;39.768;2.712;2023-01-25T13:48:20;101767.28;;;10.21;98.79
55291;BME280;41155;39.768;2.712;2023-01-25T13:50:59;101764.66;;;10.14;99.20
55291;BME280;41155;39.768;2.712;2023-01-25T13:53:27;101776.44;;;10.19;99.33
55291;BME280;41155;39.768;2.712;2023-01-25T13:56:00;101767.06;;;10.22;100.00
55291;BME280;41155;39.768;2.712;2023-01-25T14:01:02;101771.81;;;10.27;100.00
55291;BME280;41155;39.768;2.712;2023-01-25T14:03:38;101771.09;;;10.56;95.41
55291;BME280;41155;39.768;2.712;2023-01-25T14:06:06;101760.28;;;10.56;96.19
55291;BME280;41155;39.768;2.712;2023-01-25T14:08:32;101770.13;;;10.51;96.37
55291;BME280;41155;39.768;2.712;2023-01-25T14:10:58;101755.91;;;10.55;95.83
55291;BME280;41155;39.768;2.712;2023-01-25T14:13:24;101763.22;;;10.36;97.07
55291;BME280;41155;39.768;2.712;2023-01-25T14:15:58;101762.03;;;10.51;98.36
55291;BME280;41155;39.768;2.712;2023-01-25T14:18:30;101773.34;;;10.59;97.88
55291;BME280;41155;39.768;2.712;2023-01-25T14:21:17;101766.88;;;10.60;96.96